Terminal Aerodrome Forecast
Issued by NWS

Home | Current Version | Previous Version | Text Only | Print | Product List | Glossary On
Versions: 1 2 3 4 5 6 7 8 9 10 11 12 13 14 15 16 17 18 19 20 21 22
000
FTUS43 KJKL 061732
TAFSJS
TAF
KSJS 061732Z 0618/0718 22005KT P6SM SCT015 BKN025
     FM061900 24005KT P6SM SCT025 BKN035
     FM070800 VRB03KT 3SM BR SKC
     FM071400 21006KT P6SM VCSH BKN035 OVC200=

USA.gov is the U.S. government's official web portal to all federal, state and local government web resources and services.